Time;durP1;ratioP1;P1;durP2;ratioP2;P2;SDS_P1;SDS_P2;PMS_P1;PMS_P2;Temp;Humidity;BMP_temperature;BMP_pressure;BME280_temperature;BME280_humidity;BME280_pressure;Samples;Min_cycle;Max_cycle;Signal;HPM_P1;HPM_P2
2023/10/18 00:01:20;;;;;;;9.93;7.65;;;;;;;17.84;52.91;101205.02;2296775;77;50652;-72
2023/10/18 00:04:23;;;;;;;11.48;7.90;;;;;;;17.82;52.99;101208.36;2297321;76;51420;-72
2023/10/18 00:07:27;;;;;;;11.80;7.92;;;;;;;17.86;52.89;101201.69;2250870;77;51542;-72
2023/10/18 00:10:30;;;;;;;11.08;7.80;;;;;;;17.89;52.82;101194.66;2300939;76;50377;-73
2023/10/18 00:13:33;;;;;;;12.40;8.10;;;;;;;18.00;52.56;101194.32;2275451;77;50311;-72
2023/10/18 00:16:36;;;;;;;11.30;7.90;;;;;;;18.01;52.52;101192.51;2296469;76;51421;-73
2023/10/18 00:19:39;;;;;;;11.55;7.85;;;;;;;18.04;52.44;101193.00;2208446;77;51076;-72
2023/10/18 00:22:42;;;;;;;12.45;8.10;;;;;;;18.02;52.47;101193.66;2296440;76;51492;-73
2023/10/18 00:25:45;;;;;;;10.98;7.85;;;;;;;17.99;52.55;101187.30;2296815;76;51468;-73
2023/10/18 00:28:47;;;;;;;9.75;7.20;;;;;;;17.96;52.59;101194.34;2250867;77;51524;-73
2023/10/18 00:31:49;;;;;;;12.13;8.20;;;;;;;17.96;52.61;101188.15;2279320;77;51467;-73
2023/10/18 00:34:54;;;;;;;10.48;7.62;;;;;;;17.92;52.67;101201.52;2289088;77;50903;-73
2023/10/18 00:37:55;;;;;;;11.53;7.47;;;;;;;17.85;52.82;101197.31;2298607;76;22325;-74
2023/10/18 00:40:58;;;;;;;11.12;8.13;;;;;;;17.83;52.84;101193.48;2241305;77;50159;-74
2023/10/18 00:44:00;;;;;;;10.93;7.95;;;;;;;17.86;52.83;101190.98;2232219;77;52310;-74
2023/10/18 00:47:03;;;;;;;11.40;8.10;;;;;;;17.92;52.69;101184.95;2298220;76;51515;-74
2023/10/18 00:50:06;;;;;;;11.08;7.72;;;;;;;17.99;52.54;101183.28;2298362;76;51568;-73
2023/10/18 00:53:08;;;;;;;10.25;7.10;;;;;;;18.00;52.53;101183.61;2298219;76;50400;-74
2023/10/18 00:56:12;;;;;;;11.78;7.90;;;;;;;18.00;52.50;101179.59;2256784;76;51921;-73
2023/10/18 00:59:26;;;;;;;11.60;7.80;;;;;;;18.02;52.45;101171.41;2241917;76;22364;-74
2023/10/18 01:02:35;;;;;;;11.38;7.75;;;;;;;18.06;52.35;101176.27;2245042;77;22489;-73
2023/10/18 01:05:35;;;;;;;10.63;6.92;;;;;;;18.03;52.37;101179.29;2298596;76;23011;-73
2023/10/18 01:08:38;;;;;;;11.80;8.18;;;;;;;17.97;52.53;101176.42;2298411;76;50294;-73
2023/10/18 01:11:40;;;;;;;10.82;7.42;;;;;;;17.94;52.59;101177.59;2252444;76;50052;-73
2023/10/18 01:14:45;;;;;;;12.75;8.00;;;;;;;17.90;52.68;101178.08;2277122;77;51534;-74
2023/10/18 01:17:49;;;;;;;12.40;8.20;;;;;;;17.84;52.80;101170.22;2236357;76;52545;-74
2023/10/18 01:20:52;;;;;;;10.93;7.50;;;;;;;17.86;52.82;101172.74;2253087;77;51660;-73
2023/10/18 01:23:57;;;;;;;11.60;8.20;;;;;;;17.95;52.57;101175.75;2260173;77;50758;-73
2023/10/18 01:26:59;;;;;;;12.73;7.75;;;;;;;18.05;52.35;101175.09;2277178;77;52785;-73
2023/10/18 01:30:02;;;;;;;10.88;7.80;;;;;;;18.05;52.35;101169.73;2277307;77;51541;-73
2023/10/18 01:33:10;;;;;;;10.08;7.62;;;;;;;18.05;52.30;101166.55;2262783;77;50648;-73
2023/10/18 01:36:12;;;;;;;10.67;7.70;;;;;;;18.00;52.41;101166.72;2259120;76;21882;-73
2023/10/18 01:39:18;;;;;;;11.20;7.62;;;;;;;17.99;52.46;101155.17;2275544;77;22306;-74
2023/10/18 01:42:21;;;;;;;10.98;7.72;;;;;;;17.99;52.43;101157.02;2300731;76;51721;-74
2023/10/18 01:45:25;;;;;;;10.82;7.80;;;;;;;17.98;52.38;101161.55;2258911;76;50429;-74
2023/10/18 01:48:30;;;;;;;10.97;8.10;;;;;;;17.91;52.54;101157.02;2278061;77;51030;-73
2023/10/18 01:51:32;;;;;;;10.43;7.80;;;;;;;17.89;52.66;101159.85;2253090;77;22317;-74
2023/10/18 01:54:35;;;;;;;10.90;7.72;;;;;;;17.86;52.71;101154.00;2252509;77;51518;-74
2023/10/18 01:57:37;;;;;;;10.72;7.67;;;;;;;17.86;52.71;101141.95;2253009;76;50674;-73
2023/10/18 02:00:44;;;;;;;10.82;7.53;;;;;;;17.92;52.60;101137.27;2252316;77;51516;-73
2023/10/18 02:03:49;;;;;;;11.18;7.50;;;;;;;18.00;52.42;101140.77;2259282;76;50280;-73
2023/10/18 02:06:50;;;;;;;9.98;7.22;;;;;;;18.04;52.26;101136.77;2298957;76;22305;-73
2023/10/18 02:09:53;;;;;;;10.35;7.75;;;;;;;18.10;52.15;101139.78;2277305;76;50314;-74
2023/10/18 02:12:55;;;;;;;10.88;7.70;;;;;;;18.04;52.25;101127.91;2298300;76;50717;-74
2023/10/18 02:15:57;;;;;;;11.22;7.97;;;;;;;18.01;52.32;101128.24;2228026;76;52594;-73
2023/10/18 02:19:00;;;;;;;11.53;7.75;;;;;;;18.00;52.34;101134.08;2277291;76;51048;-73
2023/10/18 02:22:02;;;;;;;10.50;7.25;;;;;;;17.99;52.34;101120.36;2277279;77;52080;-73
2023/10/18 02:25:08;;;;;;;11.35;7.25;;;;;;;17.97;52.36;101121.03;2277038;77;51979;-73
2023/10/18 02:28:22;;;;;;;9.10;7.00;;;;;;;17.93;52.47;101121.05;2254218;77;22351;-73
2023/10/18 02:31:25;;;;;;;11.68;7.80;;;;;;;17.87;52.57;101119.02;2303377;76;49714;-74
2023/10/18 02:34:27;;;;;;;9.83;7.28;;;;;;;17.87;52.56;101109.65;2278104;77;50755;-74
2023/10/18 02:37:31;;;;;;;8.80;7.08;;;;;;;17.95;52.42;101111.48;2301079;76;52286;-75
2023/10/18 02:40:38;;;;;;;10.72;7.47;;;;;;;17.98;52.34;101120.52;2276290;75;21908;-74
2023/10/18 02:43:38;;;;;;;12.90;7.70;;;;;;;18.03;52.24;101122.19;2276055;76;22290;-74
2023/10/18 02:46:40;;;;;;;9.00;7.08;;;;;;;18.09;52.09;101122.05;2275636;77;51529;-74
2023/10/18 02:49:47;;;;;;;10.45;7.37;;;;;;;18.04;52.19;101115.34;2250573;76;51178;-75
2023/10/18 02:52:46;;;;;;;10.43;7.10;;;;;;;18.04;52.16;101117.19;2275458;77;22283;-74
2023/10/18 02:55:58;;;;;;;10.85;7.33;;;;;;;18.04;52.13;101119.36;2250581;76;51675;-73
2023/10/18 02:59:06;;;;;;;9.53;7.20;;;;;;;18.04;52.15;101113.17;2277298;77;50778;-74
2023/10/18 03:02:09;;;;;;;10.40;7.28;;;;;;;17.98;52.23;101114.69;2301011;76;22468;-74
2023/10/18 03:05:10;;;;;;;9.20;7.20;;;;;;;17.93;52.38;101112.16;2275005;77;22221;-74
2023/10/18 03:08:12;;;;;;;8.98;6.40;;;;;;;17.87;52.49;101116.84;2251235;77;50422;-74
2023/10/18 03:11:14;;;;;;;11.55;7.22;;;;;;;17.88;52.45;101113.16;2297108;77;50339;-74
2023/10/18 03:14:19;;;;;;;9.98;7.30;;;;;;;17.91;52.38;101102.97;2296832;77;51644;-74
2023/10/18 03:20:26;;;;;;;9.95;7.50;;;;;;;17.97;52.26;101111.66;2297329;76;22966;-75
2023/10/18 03:23:31;;;;;;;9.25;7.37;;;;;;;18.04;52.09;101109.98;2297129;76;24662;-73
2023/10/18 03:26:35;;;;;;;9.45;7.10;;;;;;;18.05;52.07;101097.42;2276350;77;22417;-75
2023/10/18 03:29:38;;;;;;;11.15;7.28;;;;;;;18.06;51.96;101094.59;2259925;77;51612;-74
2023/10/18 03:32:40;;;;;;;9.78;7.33;;;;;;;18.04;52.03;101091.24;2297128;77;51445;-74
2023/10/18 03:35:43;;;;;;;10.13;7.03;;;;;;;18.03;52.02;101085.56;2275997;75;50356;-74
2023/10/18 03:38:52;;;;;;;9.18;7.20;;;;;;;17.99;52.10;101088.23;2275796;77;50331;-73
2023/10/18 03:41:58;;;;;;;9.95;6.97;;;;;;;17.96;52.15;101085.06;2270158;77;21869;-74
2023/10/18 03:44:53;;;;;;;9.35;6.95;;;;;;;17.91;52.27;101097.61;2305932;76;22202;-74
2023/10/18 03:47:58;;;;;;;9.30;7.17;;;;;;;17.91;52.24;101095.45;2275512;76;51499;-74
2023/10/18 03:51:01;;;;;;;9.10;6.85;;;;;;;17.90;52.24;101093.24;2306579;76;50384;-74
2023/10/18 03:54:04;;;;;;;10.05;7.10;;;;;;;17.91;52.24;101097.61;2300624;76;52873;-74
2023/10/18 03:57:07;;;;;;;9.50;7.22;;;;;;;18.03;52.03;101091.40;2250852;77;51536;-74
2023/10/18 04:03:30;;;;;;;10.32;7.12;;;;;;;18.11;51.80;101077.16;2281679;76;22182;-76
2023/10/18 04:06:35;;;;;;;9.70;7.22;;;;;;;18.12;51.74;101068.14;2301541;76;50794;-74
2023/10/18 04:09:36;;;;;;;9.05;6.67;;;;;;;18.08;51.83;101070.81;2256759;76;22294;-74
2023/10/18 04:12:40;;;;;;;8.65;7.20;;;;;;;18.05;51.83;101075.50;2255541;77;51453;-73
2023/10/18 04:15:46;;;;;;;9.88;7.08;;;;;;;18.02;51.96;101069.66;2256825;76;22239;-73
2023/10/18 04:18:47;;;;;;;8.03;6.70;;;;;;;18.00;51.99;101067.13;2263288;77;22330;-74
2023/10/18 04:21:53;;;;;;;10.50;7.03;;;;;;;17.95;52.07;101069.48;2255786;76;50336;-76
2023/10/18 04:24:54;;;;;;;9.75;6.53;;;;;;;17.90;52.17;101063.80;2279833;77;23633;-76
2023/10/18 04:27:59;;;;;;;8.20;6.62;;;;;;;17.89;52.17;101059.45;2263349;76;49972;-76
2023/10/18 04:31:01;;;;;;;;;;;;;;;17.89;52.20;101063.98;2284058;77;50822;-75
2023/10/18 04:34:11;;;;;;;10.68;6.53;;;;;;;17.98;51.99;101052.24;2287722;77;50070;-73
2023/10/18 04:37:12;;;;;;;9.23;7.00;;;;;;;18.03;51.91;101050.75;2252815;77;22419;-74
2023/10/18 04:40:22;;;;;;;7.53;6.15;;;;;;;18.06;51.80;101046.91;2278130;77;22710;-76
2023/10/18 04:43:25;;;;;;;8.58;6.22;;;;;;;18.06;51.80;101045.05;2278384;77;22453;-76
2023/10/18 04:46:31;;;;;;;9.05;6.80;;;;;;;18.07;51.77;101043.20;2258080;77;22464;-75
2023/10/18 04:49:36;;;;;;;8.50;6.65;;;;;;;18.05;51.79;101039.34;2275230;77;22270;-75
2023/10/18 04:52:42;;;;;;;7.92;6.28;;;;;;;18.07;51.72;101041.87;2258413;76;22370;-76
2023/10/18 04:55:50;;;;;;;8.55;6.53;;;;;;;18.03;51.81;101036.03;2299979;76;50393;-75
2023/10/18 04:58:51;;;;;;;9.60;6.10;;;;;;;17.98;51.94;101042.88;2299677;76;22139;-73
2023/10/18 05:04:57;;;;;;;7.12;5.87;;;;;;;17.95;51.95;101045.38;2260197;77;22293;-74
2023/10/18 05:08:00;;;;;;;7.03;6.12;;;;;;;17.96;51.92;101047.08;2209400;77;51060;-74
2023/10/18 05:14:35;;;;;;;7.78;6.30;;;;;;;18.00;51.88;101051.07;2264968;76;21639;-75
2023/10/18 05:17:30;;;;;;;6.97;5.83;;;;;;;18.13;51.52;101050.55;2257401;77;22230;-76
2023/10/18 05:23:52;;;;;;;7.28;5.40;;;;;;;18.14;51.51;101042.03;2297269;76;23409;-76
2023/10/18 05:26:55;;;;;;;7.37;6.12;;;;;;;18.09;51.58;101040.37;2258933;77;50684;-76
2023/10/18 05:29:58;;;;;;;7.25;6.10;;;;;;;18.02;51.72;101037.02;2276057;77;50652;-75
2023/10/18 05:36:54;;;;;;;8.43;5.70;;;;;;;17.96;51.91;101044.91;2278237;76;22576;-73
2023/10/18 05:42:35;;;;;;;6.55;5.60;;;;;;;17.89;52.05;101054.11;2260315;76;21998;-75
2023/10/18 05:45:35;;;;;;;7.58;5.92;;;;;;;17.88;52.07;101056.46;2260546;76;22962;-75
2023/10/18 05:48:41;;;;;;;7.22;5.45;;;;;;;17.93;51.99;101051.44;2298669;76;51577;-74
2023/10/18 05:54:46;;;;;;;6.83;5.78;;;;;;;18.03;51.74;101049.42;2202096;77;22421;-74
2023/10/18 05:57:50;;;;;;;6.35;5.35;;;;;;;18.14;51.51;101060.78;2252766;76;52089;-74
2023/10/18 06:00:55;;;;;;;7.85;5.80;;;;;;;18.12;51.48;101050.73;2299949;76;50315;-74
2023/10/18 06:03:57;;;;;;;;;;;;;;;18.11;51.52;101050.38;2300172;76;51544;-74
2023/10/18 06:07:04;;;;;;;6.67;5.75;;;;;;;18.10;51.52;101040.69;2298610;76;51564;-74
2023/10/18 06:10:13;;;;;;;7.65;5.40;;;;;;;18.08;51.57;101041.36;2277328;76;22227;-74
2023/10/18 06:13:20;;;;;;;7.92;5.85;;;;;;;18.04;51.65;101041.70;2298864;76;22297;-74
2023/10/18 06:16:20;;;;;;;10.25;5.75;;;;;;;18.01;51.72;101043.90;2298995;76;22510;-73
2023/10/18 06:19:27;;;;;;;5.72;5.12;;;;;;;17.96;51.83;101037.70;2277941;77;51500;-74
2023/10/18 06:22:29;;;;;;;8.18;5.53;;;;;;;17.96;51.80;101035.53;2260505;76;22285;-73
2023/10/18 06:25:34;;;;;;;6.55;5.00;;;;;;;17.98;51.77;101045.07;2253613;76;50766;-74
2023/10/18 06:28:37;;;;;;;7.67;5.70;;;;;;;17.98;51.85;101046.89;2253211;77;23002;-75
2023/10/18 06:31:43;;;;;;;6.40;5.65;;;;;;;18.04;51.75;101042.21;2299839;76;22348;-75
2023/10/18 06:34:46;;;;;;;6.72;5.20;;;;;;;18.13;51.50;101043.02;2257372;76;50510;-73
2023/10/18 06:37:48;;;;;;;6.55;5.08;;;;;;;18.15;51.43;101032.98;2298619;76;51424;-74
2023/10/18 06:41:00;;;;;;;7.42;5.87;;;;;;;18.22;51.28;101031.30;2252716;76;50217;-75
2023/10/18 06:43:55;;;;;;;7.60;5.73;;;;;;;18.28;51.22;101022.56;2295955;77;22256;-75
2023/10/18 06:47:06;;;;;;;7.22;5.53;;;;;;;18.21;51.35;101026.45;2298715;76;51540;-74
2023/10/18 06:50:04;;;;;;;7.10;5.30;;;;;;;18.16;51.55;101023.93;2253039;76;22213;-74
2023/10/18 06:53:07;;;;;;;7.60;5.33;;;;;;;18.12;51.69;101026.63;2257178;77;51443;-75
2023/10/18 06:56:19;;;;;;;6.03;4.97;;;;;;;18.08;51.86;101019.94;2238511;76;51811;-75
2023/10/18 06:59:14;;;;;;;5.90;5.30;;;;;;;18.08;51.88;101030.64;2276572;77;22285;-74
2023/10/18 07:02:16;;;;;;;7.12;5.37;;;;;;;18.06;52.01;101034.86;2297738;76;50338;-74
2023/10/18 07:05:18;;;;;;;7.10;5.15;;;;;;;18.08;52.03;101020.77;2301744;76;51660;-74
2023/10/18 07:08:25;;;;;;;6.00;5.00;;;;;;;18.15;51.92;101027.12;2275402;75;50411;-75
2023/10/18 07:11:26;;;;;;;6.85;5.03;;;;;;;18.14;51.95;101026.80;2306656;76;22236;-74
2023/10/18 07:14:30;;;;;;;6.42;5.20;;;;;;;18.14;52.01;101028.64;2275864;76;50317;-75
2023/10/18 07:17:34;;;;;;;5.85;5.20;;;;;;;18.14;52.00;101036.17;2306407;76;51542;-74
2023/10/18 07:20:36;;;;;;;6.15;5.00;;;;;;;18.10;52.12;101028.64;2250953;76;51027;-75
2023/10/18 07:23:40;;;;;;;7.83;4.87;;;;;;;18.06;52.23;101033.52;2275433;77;51541;-74
2023/10/18 07:26:42;;;;;;;6.00;5.28;;;;;;;18.02;52.32;101024.97;2275959;77;50368;-74
2023/10/18 07:29:49;;;;;;;5.28;4.55;;;;;;;18.00;52.40;101024.30;2270207;77;50609;-75
2023/10/18 07:32:57;;;;;;;6.45;5.22;;;;;;;17.97;52.47;101016.61;2298388;77;22301;-74
2023/10/18 07:35:55;;;;;;;7.42;4.53;;;;;;;17.98;52.47;101013.42;2258397;76;22690;-75
2023/10/18 07:38:57;;;;;;;7.15;5.20;;;;;;;17.98;52.50;101014.28;2250466;77;51526;-74
2023/10/18 07:42:05;;;;;;;5.33;4.58;;;;;;;18.03;52.43;101019.96;2296726;77;51487;-75
2023/10/18 07:45:04;;;;;;;6.87;5.20;;;;;;;18.03;52.41;101017.28;2274574;77;22389;-75
2023/10/18 07:48:11;;;;;;;5.60;4.75;;;;;;;18.01;52.41;101011.26;2296638;76;50317;-75
2023/10/18 07:51:26;;;;;;;7.73;5.00;;;;;;;17.98;52.47;101001.38;2251509;77;22261;-74
2023/10/18 07:54:29;;;;;;;6.12;4.72;;;;;;;17.96;52.52;101005.58;2214631;77;51254;-74
2023/10/18 07:57:46;;;;;;;7.42;5.22;;;;;;;17.94;52.57;101004.08;2250628;77;50698;-74
2023/10/18 08:00:35;;;;;;;6.85;5.00;;;;;;;17.92;52.61;101006.91;2247395;77;23109;-74
2023/10/18 08:03:38;;;;;;;6.28;5.20;;;;;;;17.90;52.64;101002.22;2233407;77;51529;-74
2023/10/18 08:06:40;;;;;;;6.30;4.83;;;;;;;17.88;52.63;100998.91;2296716;76;50688;-74
2023/10/18 08:09:48;;;;;;;6.03;5.10;;;;;;;17.84;52.71;100990.87;2232312;77;51304;-74
2023/10/18 08:13:04;;;;;;;6.40;4.87;;;;;;;17.86;52.70;100991.54;2275691;77;22381;-73
2023/10/18 08:15:56;;;;;;;6.60;4.80;;;;;;;17.95;52.50;100985.66;2296274;76;22281;-74
2023/10/18 08:19:05;;;;;;;6.35;4.78;;;;;;;17.95;52.45;100985.14;2275434;77;51748;-73
2023/10/18 08:25:21;;;;;;;5.72;4.55;;;;;;;18.00;52.24;100976.09;2260509;76;22498;-73
2023/10/18 08:28:13;;;;;;;5.87;4.90;;;;;;;18.00;52.27;100981.45;2247962;77;22190;-75
2023/10/18 08:31:35;;;;;;;7.10;4.50;;;;;;;18.00;52.25;100976.09;2277300;77;51454;-74
2023/10/18 08:34:37;;;;;;;6.80;4.90;;;;;;;17.98;52.24;100980.81;2242364;77;52404;-74
2023/10/18 08:37:39;;;;;;;7.08;5.10;;;;;;;17.97;52.27;100975.61;2277273;76;51276;-74
2023/10/18 08:40:42;;;;;;;6.95;4.90;;;;;;;17.95;52.33;100978.45;2252953;77;51601;-74
2023/10/18 08:43:52;;;;;;;6.03;4.60;;;;;;;17.90;52.48;100978.64;2256851;77;51713;-74
2023/10/18 08:49:58;;;;;;;7.78;4.97;;;;;;;17.90;52.47;100978.12;2257750;76;22333;-74
2023/10/18 08:53:01;;;;;;;6.40;4.70;;;;;;;18.00;52.20;100977.95;2298541;76;50375;-74
2023/10/18 08:56:06;;;;;;;7.15;5.30;;;;;;;18.06;52.01;100975.44;2298702;76;51490;-74
2023/10/18 08:59:11;;;;;;;;;;;;;;;18.08;51.93;100975.23;2236699;76;49551;-74
2023/10/18 09:02:18;;;;;;;7.00;5.35;;;;;;;18.08;51.94;100978.43;2298013;77;22399;-74
2023/10/18 09:05:23;;;;;;;5.95;4.80;;;;;;;18.08;51.93;100978.43;2298354;76;50327;-74
2023/10/18 09:08:26;;;;;;;6.40;5.15;;;;;;;18.08;51.89;100965.04;2276148;77;52003;-74
2023/10/18 09:11:31;;;;;;;8.98;5.47;;;;;;;18.03;51.98;100958.38;2277655;76;50698;-74
2023/10/18 09:14:33;;;;;;;7.25;5.25;;;;;;;17.97;52.12;100956.36;2298849;76;22277;-74
2023/10/18 09:17:36;;;;;;;8.03;5.60;;;;;;;17.93;52.19;100946.16;2302975;76;53005;-74
2023/10/18 09:20:39;;;;;;;9.30;5.45;;;;;;;17.84;52.49;100947.53;2298593;76;51436;-74
2023/10/18 09:23:41;;;;;;;7.12;5.58;;;;;;;17.83;52.44;100947.72;2277285;76;51406;-74
2023/10/18 09:26:44;;;;;;;8.10;5.90;;;;;;;17.91;52.25;100943.67;2277378;77;51432;-73
2023/10/18 09:29:46;;;;;;;6.28;4.97;;;;;;;18.03;51.93;100938.30;2252569;76;50806;-74
2023/10/18 09:32:49;;;;;;;7.37;5.65;;;;;;;18.11;51.71;100939.25;2237338;77;50961;-75
2023/10/18 09:35:53;;;;;;;8.58;5.47;;;;;;;18.08;51.78;100935.59;2250828;76;51518;-74
2023/10/18 09:38:57;;;;;;;8.60;5.80;;;;;;;18.03;51.88;100934.28;2296873;77;50698;-74
2023/10/18 09:42:01;;;;;;;9.83;5.45;;;;;;;18.05;51.83;100931.41;2234289;77;51272;-74
2023/10/18 09:45:04;;;;;;;7.20;5.17;;;;;;;18.06;51.78;100939.28;2275549;77;51565;-74
2023/10/18 09:48:08;;;;;;;7.08;5.40;;;;;;;18.01;51.88;100930.10;2250618;77;50264;-74
2023/10/18 09:51:14;;;;;;;6.47;5.30;;;;;;;17.96;51.97;100934.63;2233476;77;51345;-74
2023/10/18 09:54:21;;;;;;;7.83;5.28;;;;;;;17.90;52.15;100933.95;2251505;77;22220;-75
2023/10/18 09:57:33;;;;;;;7.12;5.35;;;;;;;17.85;52.28;100934.97;2297262;76;22575;-74
2023/10/18 10:00:42;;;;;;;6.95;5.22;;;;;;;17.85;52.29;100924.27;2297512;77;22143;-74
2023/10/18 10:03:38;;;;;;;10.98;5.78;;;;;;;17.98;52.00;100926.41;2297467;75;22435;-73
2023/10/18 10:07:27;;;;;;;9.23;5.22;;;;;;;18.08;51.75;100927.04;2296715;76;51457;-75
2023/10/18 10:10:08;;;;;;;9.45;5.85;;;;;;;18.09;51.72;100915.85;2253570;76;22902;-74
2023/10/18 10:13:25;;;;;;;12.05;5.15;;;;;;;18.11;51.65;100917.34;2276970;77;50684;-75
2023/10/18 10:16:24;;;;;;;6.70;5.00;;;;;;;18.09;51.67;100910.49;2274783;77;22788;-74
2023/10/18 10:19:31;;;;;;;7.20;5.47;;;;;;;18.07;51.71;100906.64;2296846;77;50659;-74
2023/10/18 10:22:33;;;;;;;8.83;5.10;;;;;;;18.03;51.79;100906.16;2296623;76;51566;-73
2023/10/18 10:25:36;;;;;;;8.08;5.53;;;;;;;17.97;51.93;100902.81;2301031;76;52322;-74
2023/10/18 10:32:10;;;;;;;7.12;5.42;;;;;;;17.86;52.19;100901.86;2297346;77;22462;-74
2023/10/18 10:35:16;;;;;;;7.97;5.60;;;;;;;17.83;52.24;100900.36;2298193;76;50341;-74
2023/10/18 10:38:21;;;;;;;6.47;5.15;;;;;;;17.90;52.13;100905.84;2260299;76;50298;-75
2023/10/18 10:41:30;;;;;;;7.95;5.80;;;;;;;18.00;51.86;100894.44;2303192;76;51381;-75
2023/10/18 10:44:38;;;;;;;8.20;5.08;;;;;;;18.09;51.65;100897.11;2298879;76;22301;-75
2023/10/18 10:47:42;;;;;;;7.67;5.10;;;;;;;18.10;51.64;100885.38;2253380;77;22276;-75
2023/10/18 10:50:45;;;;;;;7.28;5.35;;;;;;;18.06;51.68;100888.92;2260167;76;22334;-75
2023/10/18 10:53:58;;;;;;;5.65;4.65;;;;;;;18.06;51.67;100880.38;2324587;74;21927;-74
2023/10/18 10:57:00;;;;;;;6.12;4.75;;;;;;;18.07;51.63;100870.48;2326376;76;50293;-74
2023/10/18 11:03:31;;;;;;;7.65;5.05;;;;;;;17.97;51.88;100869.86;2303034;76;22273;-74
2023/10/18 11:06:34;;;;;;;6.67;5.20;;;;;;;17.91;52.04;100849.98;2324159;76;49678;-74
2023/10/18 11:09:39;;;;;;;6.80;4.58;;;;;;;17.85;52.18;100858.69;2298265;76;50622;-75
2023/10/18 11:12:40;;;;;;;7.70;5.22;;;;;;;17.86;52.11;100851.00;2324671;76;22128;-75
2023/10/18 11:15:42;;;;;;;9.45;5.15;;;;;;;17.97;51.90;100841.75;2324745;76;50274;-74
2023/10/18 11:18:48;;;;;;;7.15;4.87;;;;;;;18.02;51.79;100846.91;2298149;76;51457;-75
2023/10/18 11:21:51;;;;;;;7.03;5.40;;;;;;;18.05;51.68;100839.86;2325074;76;22296;-75
2023/10/18 11:24:55;;;;;;;7.10;4.78;;;;;;;18.04;51.70;100832.84;2298500;76;23682;-74
2023/10/18 11:28:18;;;;;;;7.40;5.57;;;;;;;18.06;51.61;100825.48;2325015;76;50297;-75
2023/10/18 11:31:07;;;;;;;8.23;5.17;;;;;;;18.06;51.63;100821.97;2325502;76;22279;-74
2023/10/18 11:34:14;;;;;;;7.42;4.58;;;;;;;18.00;51.75;100821.31;2330660;76;23917;-75
2023/10/18 11:40:33;;;;;;;6.40;4.53;;;;;;;17.93;51.94;100814.51;2282757;76;24489;-74
2023/10/18 11:43:39;;;;;;;5.85;4.53;;;;;;;17.86;52.11;100809.52;2326383;75;51989;-75
2023/10/18 11:46:56;;;;;;;7.65;4.92;;;;;;;17.85;52.15;100809.16;2300803;76;22310;-74
2023/10/18 11:49:57;;;;;;;7.47;4.70;;;;;;;17.91;52.02;100799.63;2301398;76;22347;-75
2023/10/18 11:53:14;;;;;;;6.58;4.55;;;;;;;17.99;51.83;100808.44;2326577;75;51585;-74
2023/10/18 11:56:17;;;;;;;7.47;4.87;;;;;;;18.07;51.66;100790.16;2326054;76;51691;-75
2023/10/18 11:59:22;;;;;;;6.00;4.62;;;;;;;18.09;51.57;100788.14;2300182;76;50664;-75
2023/10/18 12:02:30;;;;;;;6.35;4.30;;;;;;;18.06;51.60;100782.64;2333751;75;22845;-73
2023/10/18 12:05:31;;;;;;;5.78;4.85;;;;;;;18.07;51.59;100778.11;2286295;77;22246;-76
2023/10/18 12:09:25;;;;;;;6.95;4.80;;;;;;;18.02;51.71;100771.11;2287688;77;51573;-75
2023/10/18 12:11:53;;;;;;;7.33;4.70;;;;;;;17.97;51.85;100771.63;2260300;77;22354;-74
2023/10/18 12:14:55;;;;;;;6.70;4.42;;;;;;;17.96;51.86;100765.96;2261668;77;50436;-75
2023/10/18 12:18:01;;;;;;;6.95;4.30;;;;;;;17.93;51.95;100761.45;2261818;77;50335;-76
2023/10/18 12:21:05;;;;;;;4.87;4.03;;;;;;;17.89;52.07;100755.62;2276212;76;22763;-75
2023/10/18 12:24:07;;;;;;;6.33;4.67;;;;;;;17.98;51.84;100747.88;2326155;76;22811;-75
2023/10/18 12:27:21;;;;;;;5.65;4.12;;;;;;;17.99;51.85;100752.22;2275419;76;51551;-75
2023/10/18 12:30:33;;;;;;;5.30;4.35;;;;;;;18.00;51.80;100744.50;2279956;76;22809;-74
2023/10/18 12:33:33;;;;;;;7.40;4.17;;;;;;;17.99;51.82;100736.66;2313532;75;22163;-75
2023/10/18 12:36:39;;;;;;;5.30;4.08;;;;;;;18.00;51.76;100726.27;2287661;76;50688;-75
2023/10/18 12:39:46;;;;;;;5.17;4.08;;;;;;;18.00;51.73;100720.41;2314723;76;51579;-74
2023/10/18 12:42:46;;;;;;;6.00;4.12;;;;;;;17.99;51.76;100714.73;2314452;76;22347;-74
2023/10/18 12:45:51;;;;;;;6.78;4.30;;;;;;;17.90;51.96;100710.43;2340384;75;52456;-74
2023/10/18 12:48:54;;;;;;;5.70;4.15;;;;;;;17.81;52.18;100712.33;2338678;76;52772;-73
2023/10/18 12:52:00;;;;;;;4.87;3.77;;;;;;;17.74;52.42;100706.49;2338520;74;50367;-74
2023/10/18 12:58:28;;;;;;;5.15;3.80;;;;;;;17.87;52.22;100700.59;2339012;76;24325;-74
2023/10/18 13:01:47;;;;;;;5.12;3.77;;;;;;;17.95;52.03;100681.28;2317445;75;22281;-73
2023/10/18 13:04:30;;;;;;;5.42;3.95;;;;;;;17.99;51.90;100685.28;2274305;76;22285;-74
2023/10/18 13:07:36;;;;;;;4.97;3.80;;;;;;;17.99;51.89;100680.44;2287634;77;51527;-74
2023/10/18 13:10:36;;;;;;;5.15;3.83;;;;;;;17.87;52.22;100671.98;2261868;77;22341;-74
2023/10/18 13:13:38;;;;;;;4.83;3.98;;;;;;;17.79;52.54;100663.97;2261585;77;51427;-75
2023/10/18 13:16:43;;;;;;;5.12;4.15;;;;;;;17.71;52.75;100656.00;2287413;76;50611;-74
2023/10/18 13:19:46;;;;;;;5.35;3.87;;;;;;;17.69;52.89;100663.38;2261891;77;52519;-75
2023/10/18 13:22:48;;;;;;;5.78;3.95;;;;;;;17.67;52.99;100653.34;2261895;77;50757;-74
2023/10/18 13:25:54;;;;;;;6.37;4.03;;;;;;;17.66;52.99;100659.71;2261931;77;50224;-74
2023/10/18 13:29:00;;;;;;;5.92;4.15;;;;;;;17.67;52.98;100652.00;2237386;77;22256;-75
2023/10/18 13:31:58;;;;;;;5.55;3.95;;;;;;;17.69;52.91;100645.97;2309285;76;22254;-74
2023/10/18 13:35:12;;;;;;;4.80;3.65;;;;;;;17.68;52.82;100633.11;2324832;75;51560;-74
2023/10/18 13:38:04;;;;;;;4.97;3.80;;;;;;;17.67;52.84;100639.96;2296764;76;22210;-75
2023/10/18 13:41:07;;;;;;;4.37;3.40;;;;;;;17.63;52.90;100633.63;2298073;76;51431;-75
2023/10/18 13:44:09;;;;;;;6.55;4.30;;;;;;;17.61;53.00;100631.62;2323813;76;52587;-74
2023/10/18 13:47:12;;;;;;;3.58;3.25;;;;;;;17.62;53.01;100629.78;2297918;76;50723;-74
2023/10/18 13:50:17;;;;;;;4.40;3.47;;;;;;;17.59;53.10;100625.62;2298082;76;51448;-75
2023/10/18 13:53:18;;;;;;;4.65;3.62;;;;;;;17.60;53.13;100619.79;2298336;76;22341;-75
2023/10/18 13:56:21;;;;;;;5.30;3.50;;;;;;;17.60;53.14;100611.77;2272561;76;52388;-74
2023/10/18 13:59:23;;;;;;;4.92;3.67;;;;;;;17.60;53.21;100613.92;2298503;76;50277;-74
2023/10/18 14:02:31;;;;;;;5.00;3.92;;;;;;;17.60;53.18;100609.91;2300893;76;50632;-74
2023/10/18 14:05:31;;;;;;;4.40;3.45;;;;;;;17.64;53.11;100603.17;2325802;76;22320;-74
2023/10/18 14:08:33;;;;;;;5.62;3.80;;;;;;;17.63;53.07;100595.34;2273083;76;52476;-74
2023/10/18 14:11:36;;;;;;;6.28;3.83;;;;;;;17.60;53.18;100597.88;2298219;76;50357;-74
2023/10/18 14:14:38;;;;;;;4.85;3.77;;;;;;;17.60;53.23;100585.00;2324237;76;51670;-74
2023/10/18 14:17:40;;;;;;;4.50;3.70;;;;;;;17.60;53.24;100590.36;2323818;76;51234;-74
2023/10/18 14:21:04;;;;;;;4.15;3.67;;;;;;;17.59;53.28;100582.81;2298067;76;50474;-74
2023/10/18 14:23:54;;;;;;;6.65;3.55;;;;;;;17.56;53.29;100579.16;2321551;76;22270;-74
2023/10/18 14:26:54;;;;;;;4.42;3.58;;;;;;;17.57;53.32;100578.65;2298403;76;22675;-74
2023/10/18 14:29:57;;;;;;;4.83;3.50;;;;;;;17.57;53.29;100575.97;2298237;76;50779;-74
2023/10/18 14:32:59;;;;;;;5.85;3.90;;;;;;;17.56;53.28;100569.80;2274237;76;51069;-74
2023/10/18 14:36:09;;;;;;;4.28;3.40;;;;;;;17.59;53.22;100564.59;2299485;75;51577;-74
2023/10/18 14:39:11;;;;;;;5.00;3.52;;;;;;;17.62;53.06;100562.41;2274622;76;51518;-74
2023/10/18 14:42:13;;;;;;;3.92;3.35;;;;;;;17.73;52.79;100559.81;2274225;76;51573;-74
2023/10/18 14:45:16;;;;;;;5.30;3.40;;;;;;;17.79;52.60;100554.24;2299610;76;51437;-75
2023/10/18 14:48:18;;;;;;;3.92;3.47;;;;;;;17.75;52.60;100552.45;2299553;76;50702;-74
2023/10/18 14:51:24;;;;;;;4.85;3.50;;;;;;;17.72;52.63;100546.60;2300316;76;22826;-75
2023/10/18 14:54:26;;;;;;;3.47;3.17;;;;;;;17.66;52.73;100545.48;2300111;76;22304;-74
2023/10/18 14:57:28;;;;;;;4.35;3.42;;;;;;;17.61;52.83;100539.33;2299469;76;52379;-74
2023/10/18 15:00:30;;;;;;;4.00;3.58;;;;;;;17.58;52.93;100533.00;2300727;76;50617;-74